sensor_id;sensor_type;location;lat;lon;timestamp;P1;durP1;ratioP1;P2;durP2;ratioP2
76373;SDS011;65197;50.164;8.012;2023-03-01T00:01:12;11.95;;;6.20;;
76373;SDS011;65197;50.164;8.012;2023-03-01T00:03:39;12.52;;;6.63;;
76373;SDS011;65197;50.164;8.012;2023-03-01T00:06:05;15.23;;;7.38;;
76373;SDS011;65197;50.164;8.012;2023-03-01T00:08:31;9.50;;;5.80;;
76373;SDS011;65197;50.164;8.012;2023-03-01T00:11:04;12.88;;;7.00;;
76373;SDS011;65197;50.164;8.012;2023-03-01T00:13:33;13.98;;;7.85;;
76373;SDS011;65197;50.164;8.012;2023-03-01T00:16:01;14.20;;;7.82;;
76373;SDS011;65197;50.164;8.012;2023-03-01T00:18:28;13.80;;;7.38;;
76373;SDS011;65197;50.164;8.012;2023-03-01T00:20:53;16.63;;;8.05;;
76373;SDS011;65197;50.164;8.012;2023-03-01T00:23:20;13.85;;;8.23;;
76373;SDS011;65197;50.164;8.012;2023-03-01T00:25:47;16.10;;;8.45;;
76373;SDS011;65197;50.164;8.012;2023-03-01T00:28:13;15.55;;;7.75;;
76373;SDS011;65197;50.164;8.012;2023-03-01T00:30:39;13.20;;;8.13;;
76373;SDS011;65197;50.164;8.012;2023-03-01T00:33:04;16.80;;;8.35;;
76373;SDS011;65197;50.164;8.012;2023-03-01T00:35:31;15.98;;;7.70;;
76373;SDS011;65197;50.164;8.012;2023-03-01T00:37:57;15.23;;;7.55;;
76373;SDS011;65197;50.164;8.012;2023-03-01T00:40:26;12.43;;;7.65;;
76373;SDS011;65197;50.164;8.012;2023-03-01T00:42:53;15.18;;;7.80;;
76373;SDS011;65197;50.164;8.012;2023-03-01T00:45:19;16.20;;;8.65;;
76373;SDS011;65197;50.164;8.012;2023-03-01T00:47:44;14.98;;;9.00;;
76373;SDS011;65197;50.164;8.012;2023-03-01T00:50:10;16.02;;;8.05;;
76373;SDS011;65197;50.164;8.012;2023-03-01T00:52:36;15.52;;;8.02;;
76373;SDS011;65197;50.164;8.012;2023-03-01T00:55:02;12.73;;;8.07;;
76373;SDS011;65197;50.164;8.012;2023-03-01T00:57:28;12.60;;;6.68;;
76373;SDS011;65197;50.164;8.012;2023-03-01T00:59:54;13.98;;;7.18;;
76373;SDS011;65197;50.164;8.012;2023-03-01T01:02:19;12.02;;;7.47;;
76373;SDS011;65197;50.164;8.012;2023-03-01T01:04:45;14.48;;;6.30;;
76373;SDS011;65197;50.164;8.012;2023-03-01T01:07:11;16.20;;;7.72;;
76373;SDS011;65197;50.164;8.012;2023-03-01T01:09:37;16.15;;;8.85;;
76373;SDS011;65197;50.164;8.012;2023-03-01T01:12:02;14.60;;;8.45;;
76373;SDS011;65197;50.164;8.012;2023-03-01T01:14:28;14.25;;;7.05;;
76373;SDS011;65197;50.164;8.012;2023-03-01T01:16:54;15.75;;;7.95;;
76373;SDS011;65197;50.164;8.012;2023-03-01T01:19:19;16.65;;;9.35;;
76373;SDS011;65197;50.164;8.012;2023-03-01T01:21:45;12.23;;;6.90;;
76373;SDS011;65197;50.164;8.012;2023-03-01T01:24:11;17.05;;;8.65;;
76373;SDS011;65197;50.164;8.012;2023-03-01T01:26:37;12.20;;;7.55;;
76373;SDS011;65197;50.164;8.012;2023-03-01T01:29:03;12.45;;;6.57;;
76373;SDS011;65197;50.164;8.012;2023-03-01T01:31:30;16.77;;;7.45;;
76373;SDS011;65197;50.164;8.012;2023-03-01T01:33:56;15.93;;;8.10;;
76373;SDS011;65197;50.164;8.012;2023-03-01T01:36:23;11.02;;;5.63;;
76373;SDS011;65197;50.164;8.012;2023-03-01T01:38:48;17.95;;;8.73;;
76373;SDS011;65197;50.164;8.012;2023-03-01T01:41:14;12.65;;;7.47;;
76373;SDS011;65197;50.164;8.012;2023-03-01T01:43:44;11.90;;;8.00;;
76373;SDS011;65197;50.164;8.012;2023-03-01T01:46:22;16.90;;;7.82;;
76373;SDS011;65197;50.164;8.012;2023-03-01T01:49:06;13.82;;;6.85;;
76373;SDS011;65197;50.164;8.012;2023-03-01T01:51:39;13.82;;;6.90;;
76373;SDS011;65197;50.164;8.012;2023-03-01T01:54:12;17.55;;;8.30;;
76373;SDS011;65197;50.164;8.012;2023-03-01T01:56:47;15.07;;;8.32;;
76373;SDS011;65197;50.164;8.012;2023-03-01T01:59:18;17.17;;;7.85;;
76373;SDS011;65197;50.164;8.012;2023-03-01T02:01:44;18.23;;;9.13;;
76373;SDS011;65197;50.164;8.012;2023-03-01T02:04:09;16.83;;;8.50;;
76373;SDS011;65197;50.164;8.012;2023-03-01T02:06:39;17.67;;;8.63;;
76373;SDS011;65197;50.164;8.012;2023-03-01T02:09:13;13.95;;;7.45;;
76373;SDS011;65197;50.164;8.012;2023-03-01T02:11:40;13.57;;;6.63;;
76373;SDS011;65197;50.164;8.012;2023-03-01T02:14:06;16.42;;;8.10;;
76373;SDS011;65197;50.164;8.012;2023-03-01T02:16:32;16.00;;;9.68;;
76373;SDS011;65197;50.164;8.012;2023-03-01T02:18:57;12.65;;;7.30;;
76373;SDS011;65197;50.164;8.012;2023-03-01T02:24:04;16.00;;;7.95;;
76373;SDS011;65197;50.164;8.012;2023-03-01T02:26:57;14.55;;;9.00;;
76373;SDS011;65197;50.164;8.012;2023-03-01T02:29:23;9.95;;;6.28;;
76373;SDS011;65197;50.164;8.012;2023-03-01T02:31:50;11.10;;;7.22;;
76373;SDS011;65197;50.164;8.012;2023-03-01T02:34:22;13.35;;;6.45;;
76373;SDS011;65197;50.164;8.012;2023-03-01T02:37:13;15.73;;;9.25;;
76373;SDS011;65197;50.164;8.012;2023-03-01T02:39:44;12.63;;;7.88;;
76373;SDS011;65197;50.164;8.012;2023-03-01T02:42:14;23.85;;;10.65;;
76373;SDS011;65197;50.164;8.012;2023-03-01T02:44:45;16.25;;;8.88;;
76373;SDS011;65197;50.164;8.012;2023-03-01T02:47:10;18.38;;;9.60;;
76373;SDS011;65197;50.164;8.012;2023-03-01T02:49:36;17.02;;;8.45;;
76373;SDS011;65197;50.164;8.012;2023-03-01T02:54:50;14.45;;;7.50;;
76373;SDS011;65197;50.164;8.012;2023-03-01T02:57:23;9.55;;;5.45;;
76373;SDS011;65197;50.164;8.012;2023-03-01T02:59:52;17.80;;;9.07;;
76373;SDS011;65197;50.164;8.012;2023-03-01T03:02:21;15.57;;;8.07;;
76373;SDS011;65197;50.164;8.012;2023-03-01T03:05:09;14.13;;;8.43;;
76373;SDS011;65197;50.164;8.012;2023-03-01T03:10:04;15.35;;;7.45;;
76373;SDS011;65197;50.164;8.012;2023-03-01T03:12:31;16.17;;;8.50;;
76373;SDS011;65197;50.164;8.012;2023-03-01T03:14:57;17.90;;;7.47;;
76373;SDS011;65197;50.164;8.012;2023-03-01T03:17:22;14.30;;;8.18;;
76373;SDS011;65197;50.164;8.012;2023-03-01T03:19:48;13.98;;;8.18;;
76373;SDS011;65197;50.164;8.012;2023-03-01T03:22:13;15.70;;;8.30;;
76373;SDS011;65197;50.164;8.012;2023-03-01T03:24:39;19.52;;;10.02;;
76373;SDS011;65197;50.164;8.012;2023-03-01T03:27:05;12.93;;;7.53;;
76373;SDS011;65197;50.164;8.012;2023-03-01T03:29:31;20.00;;;10.02;;
76373;SDS011;65197;50.164;8.012;2023-03-01T03:31:56;18.92;;;8.50;;
76373;SDS011;65197;50.164;8.012;2023-03-01T03:34:22;16.42;;;9.45;;
76373;SDS011;65197;50.164;8.012;2023-03-01T03:36:48;16.65;;;8.90;;
76373;SDS011;65197;50.164;8.012;2023-03-01T03:39:21;16.67;;;9.93;;
76373;SDS011;65197;50.164;8.012;2023-03-01T03:41:47;11.68;;;6.65;;
76373;SDS011;65197;50.164;8.012;2023-03-01T03:44:13;15.52;;;8.43;;
76373;SDS011;65197;50.164;8.012;2023-03-01T03:46:38;18.08;;;9.57;;
76373;SDS011;65197;50.164;8.012;2023-03-01T03:49:03;24.85;;;11.70;;
76373;SDS011;65197;50.164;8.012;2023-03-01T03:51:29;14.60;;;7.00;;
76373;SDS011;65197;50.164;8.012;2023-03-01T03:53:54;21.80;;;10.30;;
76373;SDS011;65197;50.164;8.012;2023-03-01T03:56:19;18.67;;;9.27;;
76373;SDS011;65197;50.164;8.012;2023-03-01T03:58:45;17.35;;;9.23;;
76373;SDS011;65197;50.164;8.012;2023-03-01T04:01:10;22.38;;;10.32;;
76373;SDS011;65197;50.164;8.012;2023-03-01T04:03:35;18.83;;;9.32;;
76373;SDS011;65197;50.164;8.012;2023-03-01T04:06:01;16.92;;;8.88;;
76373;SDS011;65197;50.164;8.012;2023-03-01T04:08:28;17.95;;;9.30;;
76373;SDS011;65197;50.164;8.012;2023-03-01T04:10:57;16.00;;;7.22;;
76373;SDS011;65197;50.164;8.012;2023-03-01T04:13:25;14.98;;;7.38;;
76373;SDS011;65197;50.164;8.012;2023-03-01T04:15:51;15.85;;;8.52;;
76373;SDS011;65197;50.164;8.012;2023-03-01T04:18:18;20.60;;;9.07;;
76373;SDS011;65197;50.164;8.012;2023-03-01T04:20:45;16.80;;;8.55;;
76373;SDS011;65197;50.164;8.012;2023-03-01T04:23:15;19.05;;;10.50;;
76373;SDS011;65197;50.164;8.012;2023-03-01T04:25:55;16.90;;;9.00;;
76373;SDS011;65197;50.164;8.012;2023-03-01T04:30:50;21.08;;;10.73;;
76373;SDS011;65197;50.164;8.012;2023-03-01T04:33:15;20.55;;;9.88;;
76373;SDS011;65197;50.164;8.012;2023-03-01T04:35:41;21.27;;;12.38;;
76373;SDS011;65197;50.164;8.012;2023-03-01T04:38:07;20.95;;;9.55;;
76373;SDS011;65197;50.164;8.012;2023-03-01T04:40:33;17.00;;;8.45;;
76373;SDS011;65197;50.164;8.012;2023-03-01T04:42:58;20.05;;;9.57;;
76373;SDS011;65197;50.164;8.012;2023-03-01T04:45:24;17.88;;;10.02;;
76373;SDS011;65197;50.164;8.012;2023-03-01T04:47:49;18.13;;;9.65;;
76373;SDS011;65197;50.164;8.012;2023-03-01T04:50:17;19.15;;;9.50;;
76373;SDS011;65197;50.164;8.012;2023-03-01T04:52:48;18.08;;;9.70;;
76373;SDS011;65197;50.164;8.012;2023-03-01T04:55:13;14.73;;;7.53;;
76373;SDS011;65197;50.164;8.012;2023-03-01T04:57:39;17.02;;;8.60;;
76373;SDS011;65197;50.164;8.012;2023-03-01T05:00:06;17.17;;;8.80;;
76373;SDS011;65197;50.164;8.012;2023-03-01T05:02:46;18.50;;;9.55;;
76373;SDS011;65197;50.164;8.012;2023-03-01T05:05:20;16.25;;;9.45;;
76373;SDS011;65197;50.164;8.012;2023-03-01T05:07:46;15.95;;;8.02;;
76373;SDS011;65197;50.164;8.012;2023-03-01T05:10:12;19.13;;;9.23;;
76373;SDS011;65197;50.164;8.012;2023-03-01T05:12:37;20.98;;;10.48;;
76373;SDS011;65197;50.164;8.012;2023-03-01T05:15:03;19.67;;;9.55;;
76373;SDS011;65197;50.164;8.012;2023-03-01T05:17:32;22.00;;;10.70;;
76373;SDS011;65197;50.164;8.012;2023-03-01T05:19:58;17.92;;;8.90;;
76373;SDS011;65197;50.164;8.012;2023-03-01T05:22:24;19.58;;;9.73;;
76373;SDS011;65197;50.164;8.012;2023-03-01T05:24:50;21.58;;;8.05;;
76373;SDS011;65197;50.164;8.012;2023-03-01T05:27:15;17.73;;;8.07;;
76373;SDS011;65197;50.164;8.012;2023-03-01T05:29:41;11.80;;;7.45;;
76373;SDS011;65197;50.164;8.012;2023-03-01T05:32:06;18.08;;;9.57;;
76373;SDS011;65197;50.164;8.012;2023-03-01T05:34:34;14.73;;;8.60;;
76373;SDS011;65197;50.164;8.012;2023-03-01T05:37:01;20.08;;;10.73;;
76373;SDS011;65197;50.164;8.012;2023-03-01T05:39:27;16.20;;;8.25;;
76373;SDS011;65197;50.164;8.012;2023-03-01T05:41:58;14.82;;;8.02;;
76373;SDS011;65197;50.164;8.012;2023-03-01T05:44:25;15.85;;;9.75;;
76373;SDS011;65197;50.164;8.012;2023-03-01T05:46:51;12.45;;;7.47;;
76373;SDS011;65197;50.164;8.012;2023-03-01T05:49:17;14.02;;;7.57;;
76373;SDS011;65197;50.164;8.012;2023-03-01T05:51:45;16.58;;;8.57;;
76373;SDS011;65197;50.164;8.012;2023-03-01T05:54:13;23.08;;;11.48;;
76373;SDS011;65197;50.164;8.012;2023-03-01T05:56:39;16.30;;;8.27;;
76373;SDS011;65197;50.164;8.012;2023-03-01T05:59:05;16.92;;;8.80;;
76373;SDS011;65197;50.164;8.012;2023-03-01T06:01:31;22.90;;;10.88;;
76373;SDS011;65197;50.164;8.012;2023-03-01T06:03:57;19.73;;;9.23;;
76373;SDS011;65197;50.164;8.012;2023-03-01T06:06:23;21.35;;;10.13;;
76373;SDS011;65197;50.164;8.012;2023-03-01T06:08:49;21.05;;;10.38;;
76373;SDS011;65197;50.164;8.012;2023-03-01T06:11:15;19.05;;;9.02;;
76373;SDS011;65197;50.164;8.012;2023-03-01T06:13:42;28.27;;;12.32;;
76373;SDS011;65197;50.164;8.012;2023-03-01T06:16:08;24.98;;;11.90;;
76373;SDS011;65197;50.164;8.012;2023-03-01T06:18:34;22.08;;;11.55;;
76373;SDS011;65197;50.164;8.012;2023-03-01T06:20:59;20.80;;;10.70;;
76373;SDS011;65197;50.164;8.012;2023-03-01T06:23:25;19.45;;;8.25;;
76373;SDS011;65197;50.164;8.012;2023-03-01T06:25:50;20.70;;;10.95;;
76373;SDS011;65197;50.164;8.012;2023-03-01T06:28:16;18.67;;;8.73;;
76373;SDS011;65197;50.164;8.012;2023-03-01T06:30:41;25.50;;;11.32;;
76373;SDS011;65197;50.164;8.012;2023-03-01T06:33:07;20.75;;;10.45;;
76373;SDS011;65197;50.164;8.012;2023-03-01T06:35:32;18.35;;;10.07;;
76373;SDS011;65197;50.164;8.012;2023-03-01T06:37:59;22.65;;;11.07;;
76373;SDS011;65197;50.164;8.012;2023-03-01T06:40:26;21.83;;;10.98;;
76373;SDS011;65197;50.164;8.012;2023-03-01T06:42:52;20.88;;;9.00;;
76373;SDS011;65197;50.164;8.012;2023-03-01T06:45:18;24.27;;;10.57;;
76373;SDS011;65197;50.164;8.012;2023-03-01T06:47:45;17.17;;;7.60;;
76373;SDS011;65197;50.164;8.012;2023-03-01T06:50:11;18.10;;;9.15;;
76373;SDS011;65197;50.164;8.012;2023-03-01T06:52:37;20.52;;;10.52;;
76373;SDS011;65197;50.164;8.012;2023-03-01T06:55:03;23.17;;;11.48;;
76373;SDS011;65197;50.164;8.012;2023-03-01T06:57:29;21.60;;;11.52;;
76373;SDS011;65197;50.164;8.012;2023-03-01T06:59:54;21.98;;;11.32;;
76373;SDS011;65197;50.164;8.012;2023-03-01T07:02:20;21.88;;;10.98;;
76373;SDS011;65197;50.164;8.012;2023-03-01T07:04:48;20.95;;;10.05;;
76373;SDS011;65197;50.164;8.012;2023-03-01T07:07:14;20.48;;;11.15;;
76373;SDS011;65197;50.164;8.012;2023-03-01T07:09:40;20.85;;;9.43;;
76373;SDS011;65197;50.164;8.012;2023-03-01T07:12:05;18.85;;;9.98;;
76373;SDS011;65197;50.164;8.012;2023-03-01T07:14:31;19.30;;;11.15;;
76373;SDS011;65197;50.164;8.012;2023-03-01T07:16:56;21.30;;;11.35;;
76373;SDS011;65197;50.164;8.012;2023-03-01T07:19:21;27.80;;;12.65;;
76373;SDS011;65197;50.164;8.012;2023-03-01T07:21:47;21.30;;;10.45;;
76373;SDS011;65197;50.164;8.012;2023-03-01T07:24:13;22.88;;;11.52;;
76373;SDS011;65197;50.164;8.012;2023-03-01T07:26:38;22.13;;;11.68;;
76373;SDS011;65197;50.164;8.012;2023-03-01T07:29:04;21.88;;;10.20;;
76373;SDS011;65197;50.164;8.012;2023-03-01T07:31:31;13.48;;;8.35;;
76373;SDS011;65197;50.164;8.012;2023-03-01T07:33:57;20.27;;;10.98;;
76373;SDS011;65197;50.164;8.012;2023-03-01T07:36:23;20.23;;;11.50;;
76373;SDS011;65197;50.164;8.012;2023-03-01T07:38:49;19.75;;;9.93;;
76373;SDS011;65197;50.164;8.012;2023-03-01T07:41:14;17.48;;;9.60;;
76373;SDS011;65197;50.164;8.012;2023-03-01T07:43:40;20.33;;;11.10;;
76373;SDS011;65197;50.164;8.012;2023-03-01T07:46:05;16.35;;;9.05;;
76373;SDS011;65197;50.164;8.012;2023-03-01T07:48:31;19.13;;;9.73;;
76373;SDS011;65197;50.164;8.012;2023-03-01T07:51:01;16.30;;;8.38;;
76373;SDS011;65197;50.164;8.012;2023-03-01T07:53:28;14.77;;;8.90;;
76373;SDS011;65197;50.164;8.012;2023-03-01T07:56:00;17.75;;;9.65;;
76373;SDS011;65197;50.164;8.012;2023-03-01T07:58:30;12.32;;;6.78;;
76373;SDS011;65197;50.164;8.012;2023-03-01T08:00:56;14.45;;;7.88;;
76373;SDS011;65197;50.164;8.012;2023-03-01T08:03:25;14.55;;;8.70;;
76373;SDS011;65197;50.164;8.012;2023-03-01T08:05:51;15.20;;;8.10;;
76373;SDS011;65197;50.164;8.012;2023-03-01T08:08:16;17.00;;;8.75;;
76373;SDS011;65197;50.164;8.012;2023-03-01T08:10:41;18.05;;;9.35;;
76373;SDS011;65197;50.164;8.012;2023-03-01T08:13:07;14.48;;;9.23;;
76373;SDS011;65197;50.164;8.012;2023-03-01T08:15:32;16.92;;;7.72;;
76373;SDS011;65197;50.164;8.012;2023-03-01T08:17:57;21.45;;;11.05;;
76373;SDS011;65197;50.164;8.012;2023-03-01T08:20:23;17.23;;;9.65;;
76373;SDS011;65197;50.164;8.012;2023-03-01T08:22:48;21.08;;;11.02;;
76373;SDS011;65197;50.164;8.012;2023-03-01T08:25:13;19.88;;;10.70;;
76373;SDS011;65197;50.164;8.012;2023-03-01T08:27:39;20.83;;;11.93;;
76373;SDS011;65197;50.164;8.012;2023-03-01T08:30:04;17.83;;;10.20;;
76373;SDS011;65197;50.164;8.012;2023-03-01T08:32:34;19.00;;;11.23;;
76373;SDS011;65197;50.164;8.012;2023-03-01T08:35:01;18.63;;;10.98;;
76373;SDS011;65197;50.164;8.012;2023-03-01T08:37:26;17.80;;;10.75;;
76373;SDS011;65197;50.164;8.012;2023-03-01T08:39:52;19.00;;;11.07;;
76373;SDS011;65197;50.164;8.012;2023-03-01T08:42:19;20.88;;;11.63;;
76373;SDS011;65197;50.164;8.012;2023-03-01T08:44:45;18.67;;;11.35;;
76373;SDS011;65197;50.164;8.012;2023-03-01T08:47:10;17.38;;;10.18;;
76373;SDS011;65197;50.164;8.012;2023-03-01T08:49:35;21.35;;;11.40;;
76373;SDS011;65197;50.164;8.012;2023-03-01T08:52:01;19.38;;;10.15;;
76373;SDS011;65197;50.164;8.012;2023-03-01T08:54:27;23.48;;;10.60;;
76373;SDS011;65197;50.164;8.012;2023-03-01T08:56:52;18.75;;;10.60;;
76373;SDS011;65197;50.164;8.012;2023-03-01T08:59:18;17.15;;;9.38;;
76373;SDS011;65197;50.164;8.012;2023-03-01T09:01:43;19.00;;;10.32;;
76373;SDS011;65197;50.164;8.012;2023-03-01T09:04:10;20.65;;;11.20;;
76373;SDS011;65197;50.164;8.012;2023-03-01T09:06:36;22.38;;;11.50;;
76373;SDS011;65197;50.164;8.012;2023-03-01T09:09:02;19.02;;;9.73;;
76373;SDS011;65197;50.164;8.012;2023-03-01T09:11:29;15.48;;;8.82;;
76373;SDS011;65197;50.164;8.012;2023-03-01T09:13:55;19.65;;;9.38;;
76373;SDS011;65197;50.164;8.012;2023-03-01T09:16:21;17.80;;;10.90;;
76373;SDS011;65197;50.164;8.012;2023-03-01T09:18:54;19.35;;;11.40;;
76373;SDS011;65197;50.164;8.012;2023-03-01T09:21:20;18.58;;;9.85;;
76373;SDS011;65197;50.164;8.012;2023-03-01T09:23:47;20.80;;;10.63;;
76373;SDS011;65197;50.164;8.012;2023-03-01T09:26:18;17.63;;;9.93;;
76373;SDS011;65197;50.164;8.012;2023-03-01T09:28:46;15.23;;;9.77;;
76373;SDS011;65197;50.164;8.012;2023-03-01T09:31:14;18.67;;;10.73;;
76373;SDS011;65197;50.164;8.012;2023-03-01T09:33:40;21.20;;;9.88;;
76373;SDS011;65197;50.164;8.012;2023-03-01T09:36:14;19.05;;;10.32;;
76373;SDS011;65197;50.164;8.012;2023-03-01T09:38:41;16.95;;;10.80;;
76373;SDS011;65197;50.164;8.012;2023-03-01T09:41:11;19.55;;;10.23;;
76373;SDS011;65197;50.164;8.012;2023-03-01T09:46:49;17.20;;;9.18;;
76373;SDS011;65197;50.164;8.012;2023-03-01T09:49:20;20.17;;;11.13;;
76373;SDS011;65197;50.164;8.012;2023-03-01T09:51:57;16.27;;;8.35;;
76373;SDS011;65197;50.164;8.012;2023-03-01T09:54:30;24.15;;;12.20;;
76373;SDS011;65197;50.164;8.012;2023-03-01T09:57:12;19.00;;;9.98;;
76373;SDS011;65197;50.164;8.012;2023-03-01T09:59:56;18.48;;;10.40;;
76373;SDS011;65197;50.164;8.012;2023-03-01T10:05:31;22.02;;;11.90;;
76373;SDS011;65197;50.164;8.012;2023-03-01T10:10:42;19.33;;;11.05;;
76373;SDS011;65197;50.164;8.012;2023-03-01T10:13:24;18.30;;;10.73;;
76373;SDS011;65197;50.164;8.012;2023-03-01T10:15:51;16.88;;;9.70;;
76373;SDS011;65197;50.164;8.012;2023-03-01T10:18:31;18.10;;;9.77;;
76373;SDS011;65197;50.164;8.012;2023-03-01T10:20:59;18.73;;;10.70;;
76373;SDS011;65197;50.164;8.012;2023-03-01T10:23:26;16.92;;;9.50;;
76373;SDS011;65197;50.164;8.012;2023-03-01T10:26:09;15.05;;;9.82;;
76373;SDS011;65197;50.164;8.012;2023-03-01T10:31:37;19.33;;;10.73;;
76373;SDS011;65197;50.164;8.012;2023-03-01T10:34:21;21.02;;;10.80;;
76373;SDS011;65197;50.164;8.012;2023-03-01T10:36:53;17.75;;;10.00;;
76373;SDS011;65197;50.164;8.012;2023-03-01T10:39:23;16.13;;;10.15;;
76373;SDS011;65197;50.164;8.012;2023-03-01T10:47:17;17.05;;;9.75;;
76373;SDS011;65197;50.164;8.012;2023-03-01T10:49:53;18.40;;;10.40;;
76373;SDS011;65197;50.164;8.012;2023-03-01T10:52:27;17.20;;;9.80;;
76373;SDS011;65197;50.164;8.012;2023-03-01T10:55:04;12.20;;;7.72;;
76373;SDS011;65197;50.164;8.012;2023-03-01T10:57:49;14.88;;;9.55;;
76373;SDS011;65197;50.164;8.012;2023-03-01T11:00:20;12.02;;;8.00;;
76373;SDS011;65197;50.164;8.012;2023-03-01T11:02:50;16.45;;;10.00;;
76373;SDS011;65197;50.164;8.012;2023-03-01T11:05:23;16.50;;;9.35;;
76373;SDS011;65197;50.164;8.012;2023-03-01T11:07:55;17.50;;;9.63;;
76373;SDS011;65197;50.164;8.012;2023-03-01T11:10:27;19.35;;;10.57;;
76373;SDS011;65197;50.164;8.012;2023-03-01T11:13:14;18.25;;;10.00;;
76373;SDS011;65197;50.164;8.012;2023-03-01T11:15:41;17.70;;;8.90;;
76373;SDS011;65197;50.164;8.012;2023-03-01T11:18:21;14.95;;;9.45;;
76373;SDS011;65197;50.164;8.012;2023-03-01T11:20:48;18.63;;;10.15;;
76373;SDS011;65197;50.164;8.012;2023-03-01T11:23:17;21.42;;;11.13;;
76373;SDS011;65197;50.164;8.012;2023-03-01T11:25:51;17.33;;;10.35;;
76373;SDS011;65197;50.164;8.012;2023-03-01T11:28:20;16.92;;;8.80;;
76373;SDS011;65197;50.164;8.012;2023-03-01T11:38:56;19.92;;;10.98;;
76373;SDS011;65197;50.164;8.012;2023-03-01T11:41:26;16.23;;;9.25;;
76373;SDS011;65197;50.164;8.012;2023-03-01T11:44:18;19.80;;;10.30;;
76373;SDS011;65197;50.164;8.012;2023-03-01T11:50:07;15.90;;;8.68;;
76373;SDS011;65197;50.164;8.012;2023-03-01T11:52:59;17.88;;;10.27;;
76373;SDS011;65197;50.164;8.012;2023-03-01T11:55:45;16.90;;;9.77;;
76373;SDS011;65197;50.164;8.012;2023-03-01T12:07:11;16.05;;;8.23;;
76373;SDS011;65197;50.164;8.012;2023-03-01T12:12:47;14.18;;;9.23;;
76373;SDS011;65197;50.164;8.012;2023-03-01T12:15:20;18.33;;;10.43;;
76373;SDS011;65197;50.164;8.012;2023-03-01T12:23:12;16.63;;;9.55;;
76373;SDS011;65197;50.164;8.012;2023-03-01T12:36:36;12.70;;;8.75;;
76373;SDS011;65197;50.164;8.012;2023-03-01T12:45:39;16.08;;;9.50;;
76373;SDS011;65197;50.164;8.012;2023-03-01T12:50:57;13.18;;;8.02;;
76373;SDS011;65197;50.164;8.012;2023-03-01T12:53:28;12.02;;;7.78;;
76373;SDS011;65197;50.164;8.012;2023-03-01T12:56:39;13.85;;;7.20;;
76373;SDS011;65197;50.164;8.012;2023-03-01T13:01:41;12.68;;;7.63;;
76373;SDS011;65197;50.164;8.012;2023-03-01T13:04:12;12.45;;;7.47;;
76373;SDS011;65197;50.164;8.012;2023-03-01T13:12:49;12.40;;;8.00;;
76373;SDS011;65197;50.164;8.012;2023-03-01T13:17:46;14.43;;;8.20;;
76373;SDS011;65197;50.164;8.012;2023-03-01T13:20:13;14.77;;;8.85;;
76373;SDS011;65197;50.164;8.012;2023-03-01T13:22:40;15.48;;;8.27;;
76373;SDS011;65197;50.164;8.012;2023-03-01T13:25:13;12.60;;;7.65;;
76373;SDS011;65197;50.164;8.012;2023-03-01T13:27:41;14.30;;;8.25;;
76373;SDS011;65197;50.164;8.012;2023-03-01T13:30:37;11.75;;;7.38;;
76373;SDS011;65197;50.164;8.012;2023-03-01T13:35:52;11.98;;;7.65;;
76373;SDS011;65197;50.164;8.012;2023-03-01T13:38:37;13.15;;;8.15;;
76373;SDS011;65197;50.164;8.012;2023-03-01T13:44:11;11.77;;;8.20;;
76373;SDS011;65197;50.164;8.012;2023-03-01T13:46:53;14.88;;;8.48;;
76373;SDS011;65197;50.164;8.012;2023-03-01T13:49:23;13.07;;;7.05;;
76373;SDS011;65197;50.164;8.012;2023-03-01T13:51:53;8.98;;;5.80;;
76373;SDS011;65197;50.164;8.012;2023-03-01T13:54:24;14.32;;;9.60;;
76373;SDS011;65197;50.164;8.012;2023-03-01T13:56:53;14.23;;;8.50;;
76373;SDS011;65197;50.164;8.012;2023-03-01T13:59:20;9.95;;;7.07;;
76373;SDS011;65197;50.164;8.012;2023-03-01T14:01:56;15.52;;;9.18;;
76373;SDS011;65197;50.164;8.012;2023-03-01T14:04:25;12.10;;;7.82;;
76373;SDS011;65197;50.164;8.012;2023-03-01T14:09:45;9.55;;;6.85;;
76373;SDS011;65197;50.164;8.012;2023-03-01T14:14:53;12.73;;;6.95;;
76373;SDS011;65197;50.164;8.012;2023-03-01T14:20:30;10.63;;;7.43;;
76373;SDS011;65197;50.164;8.012;2023-03-01T14:23:01;11.55;;;6.97;;
76373;SDS011;65197;50.164;8.012;2023-03-01T14:25:34;12.25;;;7.40;;
76373;SDS011;65197;50.164;8.012;2023-03-01T14:34:00;12.15;;;7.45;;
76373;SDS011;65197;50.164;8.012;2023-03-01T14:36:29;16.23;;;8.52;;
76373;SDS011;65197;50.164;8.012;2023-03-01T14:38:56;14.00;;;7.53;;
76373;SDS011;65197;50.164;8.012;2023-03-01T14:41:29;11.38;;;6.18;;
76373;SDS011;65197;50.164;8.012;2023-03-01T14:43:59;11.90;;;7.72;;
76373;SDS011;65197;50.164;8.012;2023-03-01T14:46:37;11.65;;;7.35;;
76373;SDS011;65197;50.164;8.012;2023-03-01T14:49:17;12.75;;;7.25;;
76373;SDS011;65197;50.164;8.012;2023-03-01T14:57:00;11.30;;;5.82;;
76373;SDS011;65197;50.164;8.012;2023-03-01T15:01:51;10.63;;;6.60;;
76373;SDS011;65197;50.164;8.012;2023-03-01T15:04:20;10.27;;;6.22;;
76373;SDS011;65197;50.164;8.012;2023-03-01T15:06:52;9.70;;;6.70;;
76373;SDS011;65197;50.164;8.012;2023-03-01T15:09:18;11.20;;;6.50;;
76373;SDS011;65197;50.164;8.012;2023-03-01T15:11:44;12.07;;;7.50;;
76373;SDS011;65197;50.164;8.012;2023-03-01T15:14:36;8.85;;;6.25;;
76373;SDS011;65197;50.164;8.012;2023-03-01T15:17:21;10.85;;;6.80;;
76373;SDS011;65197;50.164;8.012;2023-03-01T15:19:48;9.27;;;5.95;;
76373;SDS011;65197;50.164;8.012;2023-03-01T15:22:15;10.73;;;6.63;;
76373;SDS011;65197;50.164;8.012;2023-03-01T15:24:41;13.05;;;7.47;;
76373;SDS011;65197;50.164;8.012;2023-03-01T15:27:15;14.85;;;8.00;;
76373;SDS011;65197;50.164;8.012;2023-03-01T15:34:53;11.60;;;6.97;;
76373;SDS011;65197;50.164;8.012;2023-03-01T15:37:39;11.88;;;7.45;;
76373;SDS011;65197;50.164;8.012;2023-03-01T15:43:04;12.95;;;6.30;;
76373;SDS011;65197;50.164;8.012;2023-03-01T15:45:31;13.55;;;6.97;;
76373;SDS011;65197;50.164;8.012;2023-03-01T15:48:04;11.98;;;5.78;;
76373;SDS011;65197;50.164;8.012;2023-03-01T15:50:40;10.95;;;6.20;;
76373;SDS011;65197;50.164;8.012;2023-03-01T15:53:10;8.73;;;5.85;;
76373;SDS011;65197;50.164;8.012;2023-03-01T15:55:39;10.48;;;5.88;;
76373;SDS011;65197;50.164;8.012;2023-03-01T15:58:15;10.15;;;5.97;;
76373;SDS011;65197;50.164;8.012;2023-03-01T16:00:43;10.65;;;6.32;;
76373;SDS011;65197;50.164;8.012;2023-03-01T16:03:12;9.93;;;5.78;;
76373;SDS011;65197;50.164;8.012;2023-03-01T16:05:38;11.60;;;6.10;;
76373;SDS011;65197;50.164;8.012;2023-03-01T16:08:04;9.35;;;5.88;;
76373;SDS011;65197;50.164;8.012;2023-03-01T16:10:30;9.07;;;6.35;;
76373;SDS011;65197;50.164;8.012;2023-03-01T16:12:57;10.40;;;6.40;;
76373;SDS011;65197;50.164;8.012;2023-03-01T16:15:25;8.02;;;5.72;;
76373;SDS011;65197;50.164;8.012;2023-03-01T16:17:55;10.43;;;6.80;;
76373;SDS011;65197;50.164;8.012;2023-03-01T16:20:23;11.55;;;6.15;;
76373;SDS011;65197;50.164;8.012;2023-03-01T16:22:49;11.13;;;5.68;;
76373;SDS011;65197;50.164;8.012;2023-03-01T16:25:15;10.93;;;6.10;;
76373;SDS011;65197;50.164;8.012;2023-03-01T16:27:43;10.02;;;5.07;;
76373;SDS011;65197;50.164;8.012;2023-03-01T16:30:14;10.55;;;5.55;;
76373;SDS011;65197;50.164;8.012;2023-03-01T16:32:41;10.90;;;5.57;;
76373;SDS011;65197;50.164;8.012;2023-03-01T16:35:08;11.88;;;6.65;;
76373;SDS011;65197;50.164;8.012;2023-03-01T16:37:35;10.57;;;5.47;;
76373;SDS011;65197;50.164;8.012;2023-03-01T16:40:02;8.40;;;5.78;;
76373;SDS011;65197;50.164;8.012;2023-03-01T16:42:32;7.53;;;4.38;;
76373;SDS011;65197;50.164;8.012;2023-03-01T16:44:58;8.98;;;5.05;;